< < Back
Terminal Aerodrome Forecast


Current Version              Previous Versions:   1  2  3  4  5  6  7  8  9  

Terminal Aerodrome Forecast

222
FTUS42 KFFC 010700 AAA
TAFATL
TAF AMD
KATL 010744Z 0108/0212 06007KT P6SM VCSH SCT004 OVC008
      TEMPO 0108/0112 4SM BR OVC004
     FM011500 07006KT P6SM VCSH BKN012
     FM011800 06005KT P6SM VCSH SCT025 BKN035
      TEMPO 0119/0123 6SM -SHRA BR BKN025
     FM012300 05004KT P6SM VCSH BKN025
     FM020800 05004KT P6SM OVC008=



Latest METAR

223
SAUS70 KWBC 011500 RRL
MTRATL
METAR KATL 011452Z 07006KT 10SM BKN010 OVC020 21/18 A3010 RMK AO2 SLP185
T02110183 51007


USA.gov is the U.S. government's official web portal to all federal, state and local government web resources and services.